Time;durP1;ratioP1;P1;durP2;ratioP2;P2;SDS_P1;SDS_P2;PMS_P1;PMS_P2;Temp;Humidity;BMP_temperature;BMP_pressure;BME280_temperature;BME280_humidity;BME280_pressure;Samples;Min_cycle;Max_cycle;Signal;HPM_P1;HPM_P2
2021/04/17 00:04:51;;;;;;;20.75;13.95;;;;;;;5.19;71.35;99230.44;263477;1102;114713;-71
2021/04/17 00:09:54;;;;;;;20.00;14.15;;;;;;;5.22;70.86;99214.50;263499;1099;114705;-70
2021/04/17 00:14:57;;;;;;;22.50;14.98;;;;;;;5.29;70.96;99209.00;263457;1104;114941;-74
2021/04/17 00:20:00;;;;;;;25.00;15.65;;;;;;;5.30;70.87;99214.23;263259;1100;115361;-73
2021/04/17 00:25:03;;;;;;;23.28;15.35;;;;;;;5.29;70.98;99215.13;263156;1104;114866;-73
2021/04/17 00:30:07;;;;;;;25.15;15.75;;;;;;;5.33;70.83;99214.13;263326;1100;114705;-73
2021/04/17 00:35:11;;;;;;;20.78;14.60;;;;;;;5.37;71.28;99213.09;263000;1104;114903;-73
2021/04/17 00:40:14;;;;;;;20.58;14.45;;;;;;;5.33;70.49;99210.59;263102;1099;115033;-74
2021/04/17 00:45:17;;;;;;;20.93;14.53;;;;;;;5.26;71.18;99209.97;262969;1104;114634;-74
2021/04/17 00:50:21;;;;;;;20.70;14.35;;;;;;;5.28;70.46;99212.56;263151;1101;114748;-74
2021/04/17 00:55:24;;;;;;;21.38;14.08;;;;;;;5.28;71.09;99217.84;263452;1104;115121;-70
2021/04/17 01:00:26;;;;;;;21.50;15.80;;;;;;;5.35;71.40;99217.55;263035;1100;114795;-69
2021/04/17 01:05:32;;;;;;;20.58;14.30;;;;;;;5.38;70.57;99213.94;263263;1104;114213;-70
2021/04/17 01:10:42;;;;;;;24.05;15.18;;;;;;;5.39;70.63;99213.01;263167;1100;114509;-69
2021/04/17 01:15:45;;;;;;;25.25;17.55;;;;;;;5.34;71.01;99218.48;263108;1104;114904;-69
2021/04/17 01:20:55;;;;;;;24.83;17.43;;;;;;;5.31;70.51;99213.31;263404;1100;114750;-73
2021/04/17 01:26:01;;;;;;;23.73;16.60;;;;;;;5.25;70.22;99217.95;262829;1104;115050;-73
2021/04/17 01:31:07;;;;;;;25.05;16.30;;;;;;;5.24;70.66;99218.88;263337;1098;115055;-73
2021/04/17 01:36:12;;;;;;;23.80;16.53;;;;;;;5.26;70.74;99222.30;263539;1102;115137;-73
2021/04/17 01:41:19;;;;;;;21.45;15.05;;;;;;;5.35;70.74;99224.61;263498;1099;114667;-73
2021/04/17 01:46:25;;;;;;;20.52;13.93;;;;;;;5.38;70.67;99214.80;263403;1104;115072;-73
2021/04/17 01:51:30;;;;;;;21.28;15.33;;;;;;;5.32;70.97;99220.30;263472;1099;114948;-73
2021/04/17 01:56:35;;;;;;;21.58;13.90;;;;;;;5.28;70.69;99221.34;263506;1104;115168;-73
2021/04/17 02:01:38;;;;;;;22.53;15.13;;;;;;;5.30;70.94;99221.27;263400;1099;114772;-74
2021/04/17 02:06:41;;;;;;;21.65;15.40;;;;;;;5.30;71.08;99224.80;263507;1102;114711;-70
2021/04/17 02:11:44;;;;;;;22.15;16.23;;;;;;;5.31;71.17;99215.95;263472;1098;114725;-68
2021/04/17 02:17:00;;;;;;;21.53;15.60;;;;;;;5.35;70.87;99214.91;263514;1103;115522;-69
2021/04/17 02:22:05;;;;;;;21.10;15.55;;;;;;;5.34;71.16;99220.26;263152;1102;114819;-70
2021/04/17 02:27:08;;;;;;;23.33;16.50;;;;;;;5.26;70.77;99217.88;263304;1104;114394;-70
2021/04/17 02:32:16;;;;;;;21.40;15.50;;;;;;;5.24;70.75;99213.61;263323;1100;114874;-71
2021/04/17 02:37:19;;;;;;;23.20;15.95;;;;;;;5.24;71.48;99211.83;263093;1104;115496;-70
2021/04/17 02:42:22;;;;;;;18.93;14.58;;;;;;;5.28;71.03;99212.56;263470;1099;114693;-70
2021/04/17 02:47:25;;;;;;;20.25;15.35;;;;;;;5.34;71.27;99213.20;263547;1104;114830;-73
2021/04/17 02:52:28;;;;;;;22.18;16.98;;;;;;;5.35;71.03;99209.63;263454;1099;114900;-71
2021/04/17 02:57:31;;;;;;;21.63;14.78;;;;;;;5.33;70.84;99214.13;263555;1100;114587;-70
2021/04/17 03:02:34;;;;;;;21.75;16.08;;;;;;;5.32;71.21;99214.17;263422;1099;114828;-71
2021/04/17 03:07:37;;;;;;;17.65;13.83;;;;;;;5.30;71.07;99210.71;263616;1104;114284;-71
2021/04/17 03:12:40;;;;;;;15.68;12.33;;;;;;;5.30;70.72;99215.98;263340;1100;114746;-73
2021/04/17 03:17:42;;;;;;;15.33;12.65;;;;;;;5.35;71.31;99214.91;263630;1101;114774;-71
2021/04/17 03:22:45;;;;;;;18.10;13.43;;;;;;;5.36;70.96;99226.31;263364;1099;114883;-70
2021/04/17 03:27:48;;;;;;;17.48;13.35;;;;;;;5.30;71.35;99219.52;263402;1104;115028;-73
2021/04/17 03:32:51;;;;;;;17.48;13.63;;;;;;;5.17;70.99;99223.53;263485;1100;114485;-73
2021/04/17 03:37:54;;;;;;;18.58;14.08;;;;;;;5.10;70.82;99230.80;263219;1103;114645;-73
2021/04/17 03:42:57;;;;;;;18.30;14.05;;;;;;;5.12;71.28;99228.95;263455;1100;114824;-73
2021/04/17 03:48:00;;;;;;;18.63;13.47;;;;;;;5.16;71.12;99225.31;263153;1104;210628;-73
2021/04/17 03:53:03;;;;;;;18.75;13.68;;;;;;;5.21;71.35;99223.34;263492;1099;115745;-74
2021/04/17 03:58:06;;;;;;;20.20;14.63;;;;;;;5.23;70.82;99225.94;263505;1102;114405;-71
2021/04/17 04:03:09;;;;;;;19.95;13.60;;;;;;;5.18;71.19;99236.64;263128;1102;114864;-71
2021/04/17 04:08:11;;;;;;;16.83;13.73;;;;;;;5.14;71.37;99239.47;263519;1104;115579;-71
2021/04/17 04:13:14;;;;;;;21.45;14.85;;;;;;;5.12;70.98;99236.86;263481;1098;114327;-72
2021/04/17 04:18:17;;;;;;;18.60;13.53;;;;;;;5.16;71.37;99245.52;263497;1101;114852;-71
2021/04/17 04:23:20;;;;;;;16.87;13.17;;;;;;;5.24;71.32;99248.77;263369;1099;114853;-70
2021/04/17 04:28:23;;;;;;;18.65;14.15;;;;;;;5.26;71.46;99251.33;263494;1101;114693;-74
2021/04/17 04:33:26;;;;;;;18.38;13.48;;;;;;;5.25;70.96;99257.53;263480;1099;114695;-74
2021/04/17 04:38:29;;;;;;;17.63;12.78;;;;;;;5.22;71.00;99261.13;263491;1100;114605;-74
2021/04/17 04:43:33;;;;;;;17.43;12.70;;;;;;;5.15;71.36;99260.50;263462;1099;115173;-75
2021/04/17 04:48:37;;;;;;;16.65;12.25;;;;;;;5.16;71.21;99256.97;263599;1102;114903;-74
2021/04/17 04:53:41;;;;;;;19.30;11.58;;;;;;;5.20;70.95;99260.35;263498;1099;114630;-75
2021/04/17 04:58:44;;;;;;;17.75;12.68;;;;;;;5.29;71.43;99249.44;263527;1104;114848;-74
2021/04/17 05:03:47;;;;;;;18.03;12.48;;;;;;;5.36;71.36;99253.56;263140;1100;114899;-69
2021/04/17 05:08:50;;;;;;;17.38;11.70;;;;;;;5.38;71.05;99257.02;263488;1104;114787;-73
2021/04/17 05:13:53;;;;;;;16.53;12.00;;;;;;;5.38;71.25;99245.61;263373;1100;114645;-73
2021/04/17 05:18:56;;;;;;;15.63;12.28;;;;;;;5.28;71.31;99258.28;263482;1104;114472;-73
2021/04/17 05:23:59;;;;;;;15.40;11.60;;;;;;;5.29;71.15;99259.98;263380;1099;114716;-73
2021/04/17 05:29:03;;;;;;;15.35;11.03;;;;;;;5.29;71.21;99252.08;262171;1100;114907;-75
2021/04/17 05:34:07;;;;;;;14.20;11.40;;;;;;;5.28;70.79;99255.64;262778;1099;114892;-73
2021/04/17 05:39:09;;;;;;;16.18;12.43;;;;;;;5.27;70.72;99256.56;263464;1104;115164;-73
2021/04/17 05:44:12;;;;;;;17.55;12.93;;;;;;;5.30;71.40;99252.93;263375;1099;114995;-73
2021/04/17 05:49:15;;;;;;;17.78;12.13;;;;;;;5.33;71.29;99258.09;263491;1104;114358;-71
2021/04/17 05:54:18;;;;;;;14.53;10.98;;;;;;;5.29;71.23;99259.13;263455;1099;114866;-75
2021/04/17 05:59:21;;;;;;;18.70;11.40;;;;;;;5.27;70.70;99255.71;263456;1100;115251;-72
2021/04/17 06:04:26;;;;;;;18.70;12.83;;;;;;;5.36;71.34;99258.84;263484;1100;115287;-72
2021/04/17 06:09:30;;;;;;;16.25;13.03;;;;;;;5.35;70.39;99259.77;263463;1104;115987;-72
2021/04/17 06:14:33;;;;;;;19.35;15.00;;;;;;;5.39;70.92;99255.23;263435;1099;115235;-74
2021/04/17 06:19:37;;;;;;;21.33;16.05;;;;;;;5.36;70.52;99250.06;263408;1104;114613;-72
2021/04/17 06:24:40;;;;;;;22.00;16.38;;;;;;;5.37;70.94;99255.31;263519;1099;114627;-72
2021/04/17 06:29:42;;;;;;;23.35;17.10;;;;;;;5.38;71.38;99249.10;263542;1104;114611;-72
2021/04/17 06:34:45;;;;;;;26.18;17.48;;;;;;;5.41;71.12;99251.63;263468;1099;114356;-79
2021/04/17 06:39:48;;;;;;;22.95;16.05;;;;;;;5.49;70.68;99253.12;262028;1104;114670;-75
2021/04/17 06:44:52;;;;;;;25.83;17.75;;;;;;;5.63;70.84;99245.52;263531;1099;115231;-76
2021/04/17 06:49:57;;;;;;;23.80;16.50;;;;;;;5.69;70.86;99242.65;263415;1104;114890;-76
2021/04/17 06:55:00;;;;;;;23.20;16.95;;;;;;;5.72;71.31;99253.09;263463;1099;114783;-78
2021/04/17 07:00:06;;;;;;;25.08;16.88;;;;;;;5.77;71.23;99251.13;263471;1104;114466;-78
2021/04/17 07:05:09;;;;;;;23.35;16.05;;;;;;;5.80;71.44;99258.92;263473;1099;114712;-81
2021/04/17 07:10:13;;;;;;;21.05;15.28;;;;;;;5.84;71.10;99263.20;263449;1104;114502;-78
2021/04/17 07:15:16;;;;;;;19.30;14.53;;;;;;;5.85;70.54;99264.05;262982;1100;115346;-77
2021/04/17 07:20:18;;;;;;;20.38;15.10;;;;;;;5.90;70.48;99262.07;263489;1103;114766;-78
2021/04/17 07:25:22;;;;;;;17.95;14.80;;;;;;;5.97;71.00;99257.44;263276;1100;114619;-78
2021/04/17 07:30:31;;;;;;;20.68;14.78;;;;;;;6.00;70.39;99266.10;260288;1105;115153;-75
2021/04/17 07:35:53;;;;;;;20.52;13.80;;;;;;;5.95;70.35;99267.23;262945;1098;115714;-76
2021/04/17 07:41:09;;;;;;;21.68;15.95;;;;;;;5.90;70.22;99262.07;263294;1104;115215;-79
2021/04/17 07:46:11;;;;;;;22.23;15.25;;;;;;;5.86;70.60;99268.40;263444;1100;114554;-76
2021/04/17 07:51:14;;;;;;;21.40;15.40;;;;;;;5.92;70.07;99273.45;263138;1104;115377;-75
2021/04/17 07:56:36;;;;;;;22.63;16.33;;;;;;;5.96;70.42;99279.50;262954;1099;115021;-75
2021/04/17 08:01:42;;;;;;;20.55;15.88;;;;;;;6.02;70.88;99281.91;263480;1101;115196;-75
2021/04/17 08:06:45;;;;;;;21.33;15.75;;;;;;;5.98;70.22;99282.92;263028;1099;114682;-75
2021/04/17 08:11:57;;;;;;;24.15;17.03;;;;;;;5.97;70.04;99284.71;263080;1104;114500;-74
2021/04/17 08:17:00;;;;;;;22.55;17.18;;;;;;;5.98;70.29;99281.17;263316;1099;114707;-75
2021/04/17 08:22:03;;;;;;;24.58;18.20;;;;;;;5.99;70.38;99282.88;263497;1104;114593;-75
2021/04/17 08:27:07;;;;;;;22.83;17.25;;;;;;;5.99;70.58;99290.81;263357;1099;114921;-74
2021/04/17 08:32:29;;;;;;;24.68;18.50;;;;;;;6.07;70.96;99295.78;263249;1104;114963;-75
2021/04/17 08:37:34;;;;;;;24.48;18.30;;;;;;;6.16;70.43;99295.42;263084;1100;114735;-75
2021/04/17 08:42:42;;;;;;;23.90;18.78;;;;;;;6.15;70.41;99291.92;262883;1104;114859;-77
2021/04/17 08:47:47;;;;;;;29.53;19.93;;;;;;;6.10;70.87;99293.02;263110;1099;114744;-76
2021/04/17 08:53:02;;;;;;;24.93;18.43;;;;;;;6.05;70.19;99285.29;263141;1104;115215;-75
2021/04/17 08:58:24;;;;;;;26.03;18.25;;;;;;;6.06;70.66;99287.00;263463;1099;114744;-74
2021/04/17 09:04:07;;;;;;;25.08;18.58;;;;;;;6.15;71.01;99291.08;263390;1104;114889;-74
2021/04/17 09:09:16;;;;;;;23.10;17.37;;;;;;;6.21;70.55;99289.95;263239;1099;114467;-74
2021/04/17 09:14:28;;;;;;;24.98;18.63;;;;;;;6.25;70.47;99292.42;263571;1103;115182;-75
2021/04/17 09:19:40;;;;;;;24.58;17.60;;;;;;;6.28;71.11;99292.27;263507;1099;114743;-74
2021/04/17 09:24:44;;;;;;;22.13;16.00;;;;;;;6.30;70.47;99289.58;263480;1104;114472;-77
2021/04/17 09:29:56;;;;;;;24.08;17.55;;;;;;;6.35;70.38;99293.77;263249;1099;114583;-77
2021/04/17 09:35:10;;;;;;;18.63;13.75;;;;;;;6.45;70.12;99296.88;263301;1103;115058;-75
2021/04/17 09:40:14;;;;;;;23.20;16.98;;;;;;;6.50;70.97;99292.27;263477;1099;115048;-79
2021/04/17 09:45:29;;;;;;;23.15;16.75;;;;;;;6.51;70.53;99287.84;263325;1104;115105;-79
2021/04/17 09:50:33;;;;;;;;;;;;;;;6.56;70.31;99291.16;263495;1099;114734;-77
2021/04/17 09:56:14;;;;;;;22.15;16.78;;;;;;;6.51;70.63;99288.69;263515;1104;101689;-76
2021/04/17 10:01:18;;;;;;;27.53;19.38;;;;;;;6.48;70.67;99280.03;262856;1102;114475;-78
2021/04/17 10:06:24;;;;;;;26.00;19.00;;;;;;;6.48;70.75;99290.61;263292;1104;114762;-78
2021/04/17 10:11:28;;;;;;;22.93;17.43;;;;;;;6.49;70.11;99285.27;263635;1100;115510;-78
2021/04/17 10:16:36;;;;;;;23.85;16.25;;;;;;;6.52;70.71;99292.19;263523;1104;114731;-78
2021/04/17 10:21:41;;;;;;;21.03;15.30;;;;;;;6.47;70.46;99296.83;263671;1099;114526;-79
2021/04/17 10:26:52;;;;;;;24.93;16.45;;;;;;;6.44;69.97;99292.52;263460;1104;115173;-80
2021/04/17 10:32:06;;;;;;;20.65;15.93;;;;;;;6.39;69.98;99287.43;263570;1100;114789;-77
2021/04/17 10:37:13;;;;;;;21.03;16.23;;;;;;;6.42;70.30;99289.09;262901;1105;114940;-77
2021/04/17 10:42:16;;;;;;;22.65;16.30;;;;;;;6.42;70.21;99285.56;263378;1099;115188;-78
2021/04/17 10:47:18;;;;;;;19.73;14.93;;;;;;;6.51;70.32;99277.27;263089;1100;115219;-76
2021/04/17 10:52:28;;;;;;;22.55;16.40;;;;;;;6.56;70.88;99281.45;263239;1100;114834;-74
2021/04/17 10:57:43;;;;;;;23.33;17.53;;;;;;;6.59;70.44;99289.25;263031;1104;114822;-74
2021/04/17 11:02:51;;;;;;;25.70;17.73;;;;;;;6.61;70.10;99284.73;263146;1100;114661;-74
2021/04/17 11:08:02;;;;;;;27.70;18.15;;;;;;;6.58;70.63;99279.58;263170;1104;115054;-74
2021/04/17 11:13:06;;;;;;;23.08;17.33;;;;;;;6.60;70.66;99282.17;263395;1099;114769;-75
2021/04/17 11:18:14;;;;;;;23.33;16.70;;;;;;;6.65;70.67;99282.83;263415;1100;114869;-73
2021/04/17 11:23:30;;;;;;;21.80;16.23;;;;;;;6.76;70.55;99280.61;263166;1100;115246;-74
2021/04/17 11:28:33;;;;;;;26.10;18.03;;;;;;;6.88;70.05;99287.14;262929;1099;115406;-70
2021/04/17 11:33:37;;;;;;;21.85;15.45;;;;;;;6.95;70.38;99287.74;263339;1104;114879;-69
2021/04/17 11:38:41;;;;;;;27.03;17.80;;;;;;;6.90;69.91;99295.89;263377;1104;114798;-74
2021/04/17 11:43:44;;;;;;;25.98;18.45;;;;;;;6.88;69.88;99300.38;263185;1099;115473;-70
2021/04/17 11:48:51;;;;;;;21.93;16.00;;;;;;;6.93;69.58;99292.23;262751;1100;116757;-70
2021/04/17 11:53:53;;;;;;;24.65;16.98;;;;;;;6.95;70.30;99293.03;262873;1102;115127;-71
2021/04/17 11:58:56;;;;;;;21.77;15.55;;;;;;;6.96;69.97;99295.59;262849;1104;114960;-70
2021/04/17 12:03:59;;;;;;;22.00;16.65;;;;;;;6.98;69.92;99298.20;262538;1100;115124;-71
2021/04/17 12:09:04;;;;;;;22.45;16.35;;;;;;;6.97;69.71;99294.70;263294;1104;114951;-71
2021/04/17 12:14:07;;;;;;;21.85;16.10;;;;;;;6.94;69.22;99293.97;263333;1097;114788;-70
2021/04/17 12:19:10;;;;;;;21.83;16.40;;;;;;;6.89;69.82;99294.14;263325;1104;114742;-70
2021/04/17 12:24:13;;;;;;;22.28;17.13;;;;;;;6.88;69.63;99295.94;263091;1100;114883;-71
2021/04/17 12:29:16;;;;;;;24.83;17.17;;;;;;;6.91;69.76;99296.74;263282;1100;114714;-71
2021/04/17 12:34:19;;;;;;;26.05;17.95;;;;;;;6.96;69.88;99303.53;263361;1099;114959;-71
2021/04/17 12:39:22;;;;;;;22.75;17.60;;;;;;;7.04;70.03;99297.94;263334;1104;114989;-70
2021/04/17 12:44:25;;;;;;;23.85;18.70;;;;;;;7.09;69.53;99299.44;263156;1102;114880;-71
2021/04/17 12:49:27;;;;;;;20.38;15.73;;;;;;;7.08;69.74;99302.16;263456;1104;114778;-71
2021/04/17 12:54:31;;;;;;;22.73;16.88;;;;;;;7.03;69.39;99301.48;263395;1099;114970;-71
2021/04/17 12:59:34;;;;;;;23.90;17.15;;;;;;;6.95;69.56;99298.33;263442;1103;114575;-72
2021/04/17 13:04:37;;;;;;;22.40;16.38;;;;;;;6.97;70.13;99301.78;263257;1099;114570;-71
2021/04/17 13:09:40;;;;;;;23.25;17.38;;;;;;;7.03;69.60;99290.91;263445;1104;114727;-70
2021/04/17 13:14:43;;;;;;;23.73;17.55;;;;;;;7.11;69.76;99292.30;263420;1099;114929;-71
2021/04/17 13:19:46;;;;;;;25.43;19.70;;;;;;;7.14;69.42;99291.31;263369;1104;115929;-77
2021/04/17 13:24:51;;;;;;;25.50;19.15;;;;;;;7.22;69.99;99293.62;263317;1099;115338;-71
2021/04/17 13:29:54;;;;;;;26.80;17.68;;;;;;;7.26;69.56;99281.95;263112;1102;115099;-72
2021/04/17 13:34:57;;;;;;;26.35;19.20;;;;;;;7.30;70.19;99288.83;263257;1099;114751;-73
2021/04/17 13:39:59;;;;;;;26.30;18.30;;;;;;;7.25;69.81;99291.69;263417;1100;115322;-71
2021/04/17 13:45:04;;;;;;;27.15;19.85;;;;;;;7.25;69.77;99291.69;263356;1099;114600;-71
2021/04/17 13:50:07;;;;;;;;;;;;;;;7.27;69.42;99300.44;263310;1104;114860;-72
2021/04/17 13:55:11;;;;;;;30.35;21.58;;;;;;;7.31;69.84;99302.02;263450;1099;102248;-75
2021/04/17 14:00:14;;;;;;;28.93;21.38;;;;;;;7.35;69.38;99294.80;263381;1104;115261;-74
2021/04/17 14:05:17;;;;;;;28.45;19.85;;;;;;;7.37;69.52;99287.66;263349;1099;115008;-74
2021/04/17 14:10:22;;;;;;;29.90;22.95;;;;;;;7.35;69.28;99293.00;263409;1104;115266;-72
2021/04/17 14:15:25;;;;;;;30.03;20.60;;;;;;;7.33;69.11;99293.98;263369;1099;115088;-75
2021/04/17 14:20:28;;;;;;;25.90;19.10;;;;;;;7.33;69.60;99300.14;263225;1104;114711;-77
2021/04/17 14:25:30;;;;;;;27.03;19.97;;;;;;;7.36;69.66;99299.15;263217;1099;114963;-76
2021/04/17 14:30:34;;;;;;;27.45;19.60;;;;;;;7.39;69.18;99300.81;260573;1104;115039;-79
2021/04/17 14:35:37;;;;;;;73.43;45.17;;;;;;;7.39;69.42;99301.66;261938;1104;116378;-78
2021/04/17 14:40:40;;;;;;;34.07;24.63;;;;;;;8.85;72.67;99297.39;258218;1099;114835;-76
2021/04/17 14:45:43;;;;;;;30.05;20.95;;;;;;;8.82;69.21;99308.16;263463;1099;115281;-79
2021/04/17 14:50:46;;;;;;;33.13;21.30;;;;;;;8.54;67.91;99298.93;263413;1104;114784;-86
2021/04/17 14:55:49;;;;;;;32.30;21.43;;;;;;;8.23;67.53;99308.34;262940;1101;114717;-77
2021/04/17 15:00:51;;;;;;;35.10;22.00;;;;;;;8.00;68.08;99308.58;263178;1104;115258;-73
2021/04/17 15:05:54;;;;;;;34.68;22.73;;;;;;;7.83;67.72;99312.02;262626;1098;114849;-71
2021/04/17 15:11:01;;;;;;;39.55;25.58;;;;;;;7.88;69.23;99309.14;260882;1104;114585;-77
2021/04/17 15:16:05;;;;;;;33.03;22.23;;;;;;;7.94;68.33;99300.91;262895;1099;115009;-75
2021/04/17 15:21:08;;;;;;;35.28;23.78;;;;;;;7.95;68.15;99300.01;260768;1104;115467;-68
2021/04/17 15:26:11;;;;;;;39.00;25.73;;;;;;;7.92;68.33;99301.00;263269;1099;114917;-69
2021/04/17 15:31:14;;;;;;;40.05;26.98;;;;;;;7.88;68.78;99296.78;263456;1102;114984;-68
2021/04/17 15:36:17;;;;;;;45.23;28.13;;;;;;;7.83;68.12;99302.28;263414;1099;115427;-68
2021/04/17 15:41:20;;;;;;;46.10;25.73;;;;;;;7.69;68.14;99296.77;263344;1104;115510;-69
2021/04/17 15:46:23;;;;;;;46.63;29.30;;;;;;;7.60;68.47;99297.17;263413;1099;114472;-64
2021/04/17 15:51:26;;;;;;;50.40;29.08;;;;;;;7.54;68.58;99300.09;263432;1104;115339;-65
2021/04/17 15:56:29;;;;;;;50.08;29.93;;;;;;;7.51;69.15;99300.27;263413;1099;115117;-68
2021/04/17 16:17:38;;;;;;;52.50;32.73;;;;;;;7.49;68.74;99292.38;263429;1099;115151;-66
2021/04/17 16:22:41;;;;;;;51.60;32.28;;;;;;;7.45;69.12;99282.86;263410;1104;115175;-66
2021/04/17 16:27:43;;;;;;;55.95;33.10;;;;;;;7.41;69.09;99277.78;263320;1100;115841;-65
2021/04/17 16:32:46;;;;;;;61.23;36.58;;;;;;;7.40;68.79;99274.25;263449;1104;114864;-66
2021/04/17 16:37:50;;;;;;;59.23;35.20;;;;;;;7.37;69.16;99281.47;263271;1099;114897;-66
2021/04/17 16:42:53;;;;;;;55.13;33.47;;;;;;;7.39;69.23;99284.92;263466;1102;114678;-65
2021/04/17 16:47:56;;;;;;;55.33;35.88;;;;;;;7.43;69.68;99283.84;263441;1099;115258;-71
2021/04/17 16:52:59;;;;;;;59.10;36.68;;;;;;;7.46;69.85;99289.01;263407;1102;114523;-76
2021/04/17 16:58:02;;;;;;;55.03;35.08;;;;;;;7.47;69.71;99290.72;263399;1099;115214;-83
2021/04/17 17:03:07;;;;;;;56.43;34.25;;;;;;;7.47;69.85;99290.72;262819;1104;115419;-84
2021/04/17 17:08:10;;;;;;;57.63;35.80;;;;;;;7.45;69.45;99295.24;263060;1098;115780;-72
2021/04/17 17:13:13;;;;;;;55.53;34.85;;;;;;;7.40;68.79;99289.28;263427;1104;115125;-74
2021/04/17 17:18:16;;;;;;;58.38;34.60;;;;;;;7.97;69.86;99290.17;263405;1099;114644;-74
2021/04/17 17:23:19;;;;;;;57.15;35.55;;;;;;;7.96;69.01;99299.06;263094;1104;116052;-67
2021/04/17 17:28:22;;;;;;;63.15;40.78;;;;;;;7.86;68.99;99301.28;263298;1099;115106;-69
2021/04/17 17:33:25;;;;;;;67.98;42.08;;;;;;;7.78;69.32;99301.65;263210;1104;115033;-67
2021/04/17 17:38:31;;;;;;;55.40;33.43;;;;;;;7.70;69.01;99294.97;263191;1099;114583;-67
2021/04/17 17:43:33;;;;;;;;;;;;;;;7.61;68.82;99304.22;263107;1101;114809;-68
2021/04/17 17:48:55;;;;;;;46.30;29.80;;;;;;;7.48;69.09;99300.41;263256;1099;101842;-68
2021/04/17 17:53:59;;;;;;;51.05;31.98;;;;;;;7.39;69.16;99308.75;263453;1104;114484;-67
2021/04/17 17:59:04;;;;;;;53.40;32.63;;;;;;;7.34;68.94;99312.47;263465;1099;116057;-68
2021/04/17 18:04:07;;;;;;;49.85;31.38;;;;;;;7.33;69.06;99312.52;263398;1104;115012;-68
2021/04/17 18:09:09;;;;;;;61.43;36.28;;;;;;;7.33;69.78;99316.02;262985;1099;115235;-69
2021/04/17 18:14:13;;;;;;;57.63;35.80;;;;;;;7.32;69.49;99324.91;263403;1100;115201;-67
2021/04/17 18:19:16;;;;;;;57.85;36.10;;;;;;;7.33;69.99;99331.91;263247;1099;115882;-68
2021/04/17 18:24:18;;;;;;;52.40;32.30;;;;;;;7.32;69.50;99334.63;263361;1104;115240;-70
2021/04/17 18:29:21;;;;;;;59.08;36.25;;;;;;;7.28;69.66;99335.70;263351;1099;114838;-67
2021/04/17 18:34:24;;;;;;;51.95;32.58;;;;;;;7.24;69.74;99348.22;263221;1104;115582;-67
2021/04/17 18:39:27;;;;;;;50.45;31.93;;;;;;;7.22;70.07;99350.05;263347;1099;115793;-67
2021/04/17 18:44:31;;;;;;;49.48;29.53;;;;;;;7.22;69.65;99347.41;263405;1104;114639;-66
2021/04/17 18:49:35;;;;;;;45.70;29.35;;;;;;;7.25;70.34;99355.22;263372;1099;115795;-67
2021/04/17 18:54:37;;;;;;;47.85;30.28;;;;;;;7.30;70.29;99358.55;263016;1104;114752;-69
2021/04/17 18:59:41;;;;;;;51.85;32.35;;;;;;;7.33;70.02;99357.52;263422;1099;114930;-67
2021/04/17 19:04:43;;;;;;;51.03;31.80;;;;;;;7.30;69.87;99358.55;263387;1100;114835;-67
2021/04/17 19:09:46;;;;;;;47.80;31.38;;;;;;;7.25;69.67;99355.22;263315;1098;114974;-67
2021/04/17 19:14:49;;;;;;;52.03;31.68;;;;;;;7.22;69.89;99357.14;263146;1104;115001;-68
2021/04/17 19:19:54;;;;;;;49.03;30.18;;;;;;;7.19;69.78;99352.83;263480;1098;115662;-68
2021/04/17 19:24:57;;;;;;;;;;;;;;;7.19;69.93;99352.83;263475;1104;114547;-73
2021/04/17 19:29:59;;;;;;;54.10;31.63;;;;;;;7.21;69.95;99350.98;263281;1099;101901;-74
2021/04/17 19:35:04;;;;;;;49.30;31.13;;;;;;;7.24;70.17;99347.36;263399;1104;115545;-73
2021/04/17 19:40:09;;;;;;;51.25;32.15;;;;;;;7.23;70.14;99350.91;263402;1099;114946;-71
2021/04/17 19:45:16;;;;;;;47.55;29.98;;;;;;;7.20;70.16;99343.10;263428;1104;115008;-71
2021/04/17 19:50:19;;;;;;;46.88;30.13;;;;;;;7.17;70.42;99346.77;263447;1099;114886;-71
2021/04/17 19:55:22;;;;;;;50.85;32.05;;;;;;;7.18;70.39;99356.41;263264;1104;115107;-72
2021/04/17 20:00:25;;;;;;;63.30;39.73;;;;;;;7.19;70.50;99352.83;263234;1099;115280;-66
2021/04/17 20:05:28;;;;;;;50.10;30.70;;;;;;;7.21;70.74;99353.64;263237;1104;115465;-66
2021/04/17 20:10:31;;;;;;;50.85;31.63;;;;;;;7.22;70.37;99342.11;263377;1099;115488;-66
2021/04/17 20:15:34;;;;;;;50.18;31.65;;;;;;;7.22;70.21;99347.41;263328;1104;114774;-65
2021/04/17 20:20:37;;;;;;;59.03;34.53;;;;;;;7.20;70.75;99349.28;263459;1099;115482;-72
2021/04/17 20:25:39;;;;;;;54.60;33.15;;;;;;;7.16;69.94;99344.16;262825;1100;115293;-70
2021/04/17 20:30:42;;;;;;;56.80;34.20;;;;;;;7.12;70.36;99343.44;263420;1100;115278;-66
2021/04/17 20:35:45;;;;;;;59.48;34.08;;;;;;;7.11;70.48;99350.52;263216;1104;114857;-71
2021/04/17 20:40:48;;;;;;;56.93;34.20;;;;;;;7.13;70.95;99350.44;263281;1100;114989;-71
2021/04/17 20:45:50;;;;;;;59.00;36.58;;;;;;;7.15;71.10;99345.95;263072;1104;114881;-71
2021/04/17 20:50:53;;;;;;;57.47;35.90;;;;;;;7.17;70.98;99338.83;263464;1099;115153;-71
2021/04/17 20:55:56;;;;;;;55.50;33.30;;;;;;;7.16;71.01;99334.44;263470;1104;114854;-72
2021/04/17 21:00:58;;;;;;;57.25;34.43;;;;;;;7.13;71.08;99337.21;263470;1099;115057;-71
2021/04/17 21:06:01;;;;;;;57.85;33.85;;;;;;;7.13;70.68;99333.70;263491;1104;114492;-71
2021/04/17 21:11:04;;;;;;;55.70;33.58;;;;;;;7.14;70.51;99340.75;263452;1099;115125;-66
2021/04/17 21:16:09;;;;;;;60.63;36.38;;;;;;;7.16;70.75;99333.58;263256;1104;115200;-66
2021/04/17 21:21:12;;;;;;;58.30;35.65;;;;;;;7.18;71.15;99344.97;263450;1099;115484;-66
2021/04/17 21:26:20;;;;;;;54.48;33.60;;;;;;;7.18;70.50;99339.67;263362;1104;115108;-66
2021/04/17 21:31:23;;;;;;;69.15;42.73;;;;;;;7.19;71.15;99344.03;263436;1099;114648;-66
2021/04/17 21:36:26;;;;;;;64.83;37.03;;;;;;;7.16;71.44;99350.31;263457;1104;114759;-66
2021/04/17 21:41:29;;;;;;;55.60;33.58;;;;;;;7.18;70.62;99348.47;263443;1099;114690;-67
2021/04/17 21:46:33;;;;;;;57.08;33.33;;;;;;;7.17;70.90;99346.77;263456;1104;114720;-72
2021/04/17 21:51:36;;;;;;;53.43;31.95;;;;;;;7.19;70.47;99350.19;263272;1099;115162;-67
2021/04/17 21:56:39;;;;;;;52.70;31.48;;;;;;;7.22;70.52;99350.05;263477;1104;115196;-67
2021/04/17 22:01:43;;;;;;;50.83;30.83;;;;;;;7.20;70.79;99337.81;263426;1099;115141;-73
2021/04/17 22:06:46;;;;;;;55.10;32.10;;;;;;;7.17;70.61;99344.12;263423;1104;114786;-70
2021/04/17 22:11:50;;;;;;;52.33;30.73;;;;;;;7.15;70.69;99342.45;263050;1099;115440;-70
2021/04/17 22:16:52;;;;;;;53.38;32.63;;;;;;;7.13;70.83;99345.15;263467;1104;114387;-71
2021/04/17 22:21:55;;;;;;;54.98;32.98;;;;;;;7.13;70.40;99334.56;263440;1099;114722;-70
2021/04/17 22:26:58;;;;;;;59.00;34.53;;;;;;;7.18;71.44;99335.23;263401;1104;115291;-70
2021/04/17 22:32:01;;;;;;;57.70;34.55;;;;;;;7.21;71.49;99336.91;263452;1099;115160;-70
2021/04/17 22:37:04;;;;;;;57.20;35.13;;;;;;;7.20;71.20;99340.45;263510;1104;115095;-70
2021/04/17 22:49:09;;;;;;;52.63;30.98;;;;;;;7.13;71.43;99334.56;263513;1104;114753;-71
2021/04/17 22:54:12;;;;;;;50.38;31.13;;;;;;;7.10;70.70;99335.58;263326;1099;114817;-70
2021/04/17 22:59:15;;;;;;;56.55;31.53;;;;;;;7.11;70.88;99337.29;263438;1104;114674;-70
2021/04/17 23:04:19;;;;;;;54.68;33.28;;;;;;;7.16;70.84;99334.44;263501;1098;114770;-70
2021/04/17 23:09:22;;;;;;;57.00;32.85;;;;;;;7.17;71.35;99319.41;263325;1104;114913;-66
2021/04/17 23:14:25;;;;;;;55.55;33.40;;;;;;;7.17;70.75;99319.41;263495;1099;115493;-67
2021/04/17 23:19:27;;;;;;;58.00;34.05;;;;;;;7.18;71.33;99315.86;263521;1104;117265;-66
2021/04/17 23:24:30;;;;;;;57.50;33.68;;;;;;;7.15;71.25;99313.34;263463;1099;114759;-67
2021/04/17 23:29:33;;;;;;;57.58;34.25;;;;;;;7.14;71.05;99311.63;263515;1100;114716;-66